Time;durP1;ratioP1;P1;durP2;ratioP2;P2;SDS_P1;SDS_P2;PMS_P1;PMS_P2;Temp;Humidity;BMP_temperature;BMP_pressure;BME280_temperature;BME280_humidity;BME280_pressure;Samples;Min_cycle;Max_cycle;Signal;HPM_P1;HPM_P2
2023/09/29 00:00:33;;;;;;;6.25;5.40;;;;;;;16.62;79.39;98933.97;5047971;28;20116;-80
2023/09/29 00:02:59;;;;;;;7.80;5.88;;;;;;;16.71;79.43;98942.28;5047566;28;20028;-81
2023/09/29 00:05:25;;;;;;;6.78;6.03;;;;;;;16.61;79.65;98948.56;5047874;28;20023;-81
2023/09/29 00:07:53;;;;;;;7.25;5.90;;;;;;;16.60;79.81;98951.53;5048563;28;20060;-81
2023/09/29 00:10:21;;;;;;;6.95;6.05;;;;;;;16.53;79.86;98946.50;5045318;28;20029;-81
2023/09/29 00:12:51;;;;;;;9.75;6.30;;;;;;;16.62;80.79;98960.94;5027736;28;20090;-81
2023/09/29 00:15:18;;;;;;;6.43;5.10;;;;;;;16.67;79.74;98960.88;5044076;28;20040;-81
2023/09/29 00:17:44;;;;;;;8.02;5.40;;;;;;;16.68;79.73;98965.19;5045705;28;20029;-81
2023/09/29 00:20:23;;;;;;;9.95;6.53;;;;;;;16.66;80.24;98971.97;5045138;28;20036;-80
2023/09/29 00:22:50;;;;;;;7.05;5.45;;;;;;;16.56;80.09;98958.56;5047455;28;20380;-80
2023/09/29 00:25:15;;;;;;;13.85;6.25;;;;;;;16.44;80.47;98943.59;5044098;28;20124;-80
2023/09/29 00:27:41;;;;;;;8.02;5.22;;;;;;;16.58;80.17;98959.91;5029569;28;20108;-81
2023/09/29 00:30:09;;;;;;;8.88;4.95;;;;;;;16.66;79.95;98970.06;5021524;28;20029;-81
2023/09/29 00:32:35;;;;;;;7.68;5.75;;;;;;;16.66;80.52;98970.06;5028379;28;20488;-81
2023/09/29 00:35:00;;;;;;;8.13;5.85;;;;;;;16.52;80.41;98971.81;5028714;28;20095;-81
2023/09/29 00:37:26;;;;;;;6.57;5.50;;;;;;;16.52;80.46;98963.72;5042014;28;20029;-80
2023/09/29 00:39:52;;;;;;;5.75;5.18;;;;;;;16.50;80.37;98976.69;5026589;28;20033;-80
2023/09/29 00:42:18;;;;;;;8.77;5.78;;;;;;;16.42;80.41;98969.97;5040554;28;20040;-80
2023/09/29 00:44:44;;;;;;;6.88;5.43;;;;;;;16.42;80.87;98966.50;5041253;28;20052;-81
2023/09/29 00:47:09;;;;;;;8.90;5.97;;;;;;;16.44;80.62;98977.78;5022551;28;21114;-81
2023/09/29 00:49:35;;;;;;;5.70;5.03;;;;;;;16.36;80.79;98979.19;5040388;28;20061;-81
2023/09/29 00:52:02;;;;;;;6.25;5.22;;;;;;;16.39;81.03;98986.72;5025977;28;20037;-80
2023/09/29 00:54:30;;;;;;;6.20;5.32;;;;;;;16.44;80.92;98977.78;5024379;28;20056;-81
2023/09/29 00:56:59;;;;;;;6.82;5.10;;;;;;;16.41;80.14;98979.16;5052600;28;20033;-81
2023/09/29 00:59:25;;;;;;;8.52;5.65;;;;;;;16.40;80.63;98974.06;5037117;28;20036;-81
2023/09/29 01:01:51;;;;;;;12.40;5.75;;;;;;;16.49;80.24;98969.66;5040833;28;20041;-80
2023/09/29 01:04:17;;;;;;;7.38;5.30;;;;;;;16.39;80.62;98940.13;5043350;28;20484;-81
2023/09/29 01:06:45;;;;;;;7.78;5.55;;;;;;;16.36;80.60;98941.47;5010377;28;20021;-81
2023/09/29 01:09:11;;;;;;;7.05;5.55;;;;;;;16.24;81.64;98942.94;5040337;28;20369;-81
2023/09/29 01:11:43;;;;;;;8.25;4.90;;;;;;;16.13;81.62;98936.84;5046748;28;20131;-81
2023/09/29 01:14:11;;;;;;;9.25;5.75;;;;;;;16.33;81.49;98957.41;5047181;28;20016;-81
2023/09/29 01:16:38;;;;;;;10.38;5.65;;;;;;;16.35;81.43;98949.84;5040471;28;20026;-81
2023/09/29 01:19:11;;;;;;;6.97;5.53;;;;;;;16.41;81.17;98954.91;5043614;28;20590;-81
2023/09/29 01:21:37;;;;;;;7.65;6.00;;;;;;;16.38;81.21;98935.84;5041854;28;20488;-81
2023/09/29 01:24:02;;;;;;;8.82;5.38;;;;;;;16.44;80.95;98932.81;5022094;28;20068;-80
2023/09/29 01:26:28;;;;;;;8.93;5.38;;;;;;;16.44;80.60;98937.38;5024118;28;20039;-81
2023/09/29 01:28:53;;;;;;;6.50;5.90;;;;;;;16.60;80.80;98941.53;5010198;28;20025;-81
2023/09/29 01:31:19;;;;;;;8.40;5.70;;;;;;;16.38;80.70;98925.84;5039757;28;20396;-81
2023/09/29 01:33:44;;;;;;;8.60;6.18;;;;;;;16.38;81.49;98950.06;5045473;28;20032;-81
2023/09/29 01:36:10;;;;;;;6.95;6.25;;;;;;;16.55;81.31;98948.91;5040632;28;20044;-81
2023/09/29 01:38:35;;;;;;;7.18;5.80;;;;;;;16.44;81.41;98948.97;5041656;28;20069;-81
2023/09/29 01:41:01;;;;;;;7.50;5.70;;;;;;;16.37;81.16;98926.13;5024873;28;20025;-81
2023/09/29 01:43:26;;;;;;;7.47;6.28;;;;;;;16.55;80.88;98940.81;5029573;28;20106;-81
2023/09/29 01:45:52;;;;;;;9.82;6.38;;;;;;;16.62;81.27;98947.44;5027012;28;20033;-80
2023/09/29 01:48:17;;;;;;;8.45;6.00;;;;;;;16.58;81.40;98946.41;5014025;28;20036;-81
2023/09/29 01:50:43;;;;;;;8.35;6.13;;;;;;;16.53;80.89;98919.53;5049809;28;20115;-80
2023/09/29 01:53:11;;;;;;;6.60;5.90;;;;;;;16.57;80.94;98925.16;5031313;28;20032;-80
2023/09/29 01:55:37;;;;;;;9.25;5.97;;;;;;;16.52;81.35;98920.63;5047672;28;20025;-81
2023/09/29 01:58:03;;;;;;;7.55;6.72;;;;;;;16.55;81.57;98932.72;5028501;28;20413;-81
2023/09/29 02:00:30;;;;;;;6.90;5.70;;;;;;;16.54;80.82;98909.53;5048517;28;20435;-81
2023/09/29 02:02:55;;;;;;;6.43;5.78;;;;;;;16.64;81.00;98939.09;5052258;28;20072;-80
2023/09/29 02:05:21;;;;;;;7.78;5.65;;;;;;;16.57;81.53;98935.94;5048949;28;20060;-81
2023/09/29 02:07:49;;;;;;;11.20;6.68;;;;;;;16.57;81.50;98928.66;5050417;28;20036;-81
2023/09/29 02:10:20;;;;;;;10.02;6.32;;;;;;;16.50;81.36;98917.41;5033375;28;20056;-81
2023/09/29 02:12:49;;;;;;;8.20;5.78;;;;;;;16.52;81.78;98944.88;5049233;28;20025;-80
2023/09/29 02:15:15;;;;;;;7.53;5.82;;;;;;;16.54;81.87;98933.78;5048061;28;20028;-81
2023/09/29 02:17:41;;;;;;;8.20;5.90;;;;;;;16.52;81.61;98931.41;5045559;28;20041;-81
2023/09/29 02:20:13;;;;;;;8.60;5.93;;;;;;;16.41;82.18;98933.34;5050494;28;20500;-81
2023/09/29 02:22:39;;;;;;;8.75;5.97;;;;;;;16.38;81.80;98916.97;5044776;28;20478;-81
2023/09/29 02:25:06;;;;;;;10.27;5.82;;;;;;;16.40;82.23;98929.03;5041218;28;20029;-81
2023/09/29 02:27:31;;;;;;;8.05;5.55;;;;;;;16.39;81.97;98929.34;5025892;28;20122;-81
2023/09/29 02:29:57;;;;;;;6.57;5.43;;;;;;;16.52;82.27;98933.28;5047748;28;20025;-81
2023/09/29 02:32:22;;;;;;;7.90;5.80;;;;;;;16.46;82.35;98924.44;5032909;28;20037;-81
2023/09/29 02:34:48;;;;;;;9.40;6.43;;;;;;;16.52;81.84;98942.19;5046888;28;20053;-81
2023/09/29 02:37:14;;;;;;;7.53;6.00;;;;;;;16.53;82.32;98934.91;5046523;28;20041;-81
2023/09/29 02:39:39;;;;;;;7.75;6.00;;;;;;;16.47;82.33;98945.69;5047392;28;20028;-81
2023/09/29 02:42:04;;;;;;;7.95;5.57;;;;;;;16.42;82.12;98940.34;5041681;28;20052;-81
2023/09/29 02:44:33;;;;;;;7.70;5.97;;;;;;;16.25;82.39;98929.19;5048941;28;20040;-81
2023/09/29 02:46:59;;;;;;;8.25;6.25;;;;;;;16.27;82.55;98929.72;5047199;28;20425;-81
2023/09/29 02:49:27;;;;;;;12.57;6.55;;;;;;;16.40;82.68;98941.75;5030253;28;20032;-81
2023/09/29 02:51:53;;;;;;;7.72;5.57;;;;;;;16.32;82.26;98935.06;5044518;28;20039;-81
2023/09/29 02:54:19;;;;;;;5.93;5.32;;;;;;;16.31;82.48;98943.44;5029947;28;20038;-81
2023/09/29 02:56:45;;;;;;;6.78;5.43;;;;;;;16.34;82.75;98945.53;5027857;28;20037;-81
2023/09/29 02:59:10;;;;;;;9.02;5.63;;;;;;;16.16;82.19;98914.72;5048439;28;20032;-81
2023/09/29 03:01:36;;;;;;;8.27;6.07;;;;;;;16.24;82.29;98914.13;5047522;28;20037;-81
2023/09/29 03:04:01;;;;;;;7.40;5.55;;;;;;;16.41;82.20;98935.25;5044972;28;20037;-81
2023/09/29 03:06:26;;;;;;;10.23;6.40;;;;;;;16.36;82.21;98929.88;5047901;28;20056;-81
2023/09/29 03:08:54;;;;;;;7.50;6.75;;;;;;;16.46;82.02;98940.59;5032093;28;20032;-81
2023/09/29 03:11:21;;;;;;;7.03;5.95;;;;;;;16.37;82.15;98924.25;5046353;28;20526;-81
2023/09/29 03:13:46;;;;;;;9.02;6.03;;;;;;;16.42;82.44;98934.94;5048458;28;20604;-81
2023/09/29 03:16:12;;;;;;;7.50;5.82;;;;;;;16.21;82.11;98911.19;5045088;28;20037;-81
2023/09/29 03:18:39;;;;;;;8.60;6.57;;;;;;;16.37;82.21;98918.03;5047934;28;20132;-81
2023/09/29 03:21:04;;;;;;;6.63;5.70;;;;;;;16.48;81.54;98933.84;5030874;28;20021;-81
2023/09/29 03:23:39;;;;;;;6.93;6.22;;;;;;;16.47;82.11;98929.53;5047071;28;20035;-80
2023/09/29 03:26:05;;;;;;;6.28;5.68;;;;;;;16.38;82.19;98935.84;5027552;28;20048;-81
2023/09/29 03:28:31;;;;;;;9.13;6.75;;;;;;;16.19;83.94;98945.66;5047265;28;20037;-80
2023/09/29 03:30:57;;;;;;;9.07;5.80;;;;;;;16.39;82.26;98927.44;5045962;28;20096;-81
2023/09/29 03:33:23;;;;;;;10.00;6.18;;;;;;;16.46;82.13;98935.22;5029781;28;20061;-83
2023/09/29 03:35:48;;;;;;;9.15;5.97;;;;;;;16.37;82.03;98924.25;5044550;28;20126;-81
2023/09/29 03:38:14;;;;;;;7.22;5.20;;;;;;;16.30;81.97;98920.25;5020029;28;20131;-81
2023/09/29 03:40:44;;;;;;;7.50;5.30;;;;;;;16.47;82.17;98929.53;5030422;28;20044;-81
2023/09/29 03:43:11;;;;;;;6.28;5.43;;;;;;;16.51;81.55;98932.50;5054033;28;20148;-81
2023/09/29 03:45:38;;;;;;;7.05;5.80;;;;;;;16.54;81.76;98931.91;5046264;28;20040;-81
2023/09/29 03:48:05;;;;;;;8.25;6.35;;;;;;;16.48;82.31;98925.75;5048020;28;20048;-81
2023/09/29 03:50:32;;;;;;;7.25;5.63;;;;;;;16.55;82.13;98924.63;5040356;28;20032;-80
2023/09/29 03:52:59;;;;;;;6.68;6.00;;;;;;;16.56;82.06;98924.34;5044409;28;20040;-81
2023/09/29 03:55:24;;;;;;;9.30;6.32;;;;;;;16.46;82.53;98916.34;5047495;28;20395;-81
2023/09/29 03:57:50;;;;;;;6.75;6.05;;;;;;;16.42;82.71;98916.09;5027096;28;20026;-81
2023/09/29 04:00:18;;;;;;;7.18;6.47;;;;;;;16.43;82.66;98928.50;5042313;28;20578;-80
2023/09/29 04:02:43;;;;;;;9.35;6.32;;;;;;;16.32;82.89;98921.59;5028143;28;20469;-82
2023/09/29 04:05:09;;;;;;;11.77;7.80;;;;;;;16.42;82.93;98928.78;5058687;28;20032;-80
2023/09/29 04:07:36;;;;;;;7.07;6.38;;;;;;;16.39;82.80;98930.16;5047171;28;20013;-80
2023/09/29 04:10:05;;;;;;;8.05;6.38;;;;;;;16.46;82.63;98930.63;5007553;28;20112;-80
2023/09/29 04:12:31;;;;;;;8.68;6.38;;;;;;;16.56;82.50;98934.31;5046083;28;20094;-80
2023/09/29 04:14:56;;;;;;;6.70;5.88;;;;;;;16.41;83.13;98930.66;5016762;28;20473;-82
2023/09/29 04:17:21;;;;;;;7.35;6.57;;;;;;;16.36;83.48;98922.63;5044408;28;20437;-81
2023/09/29 04:19:47;;;;;;;8.55;5.97;;;;;;;16.49;82.82;98931.91;5012170;28;20036;-81
2023/09/29 04:22:12;;;;;;;7.13;6.43;;;;;;;16.47;83.15;98928.72;5045784;28;20060;-82
2023/09/29 04:24:39;;;;;;;7.32;6.05;;;;;;;16.34;82.77;98908.63;5041971;28;20028;-82
2023/09/29 04:27:05;;;;;;;7.00;6.32;;;;;;;16.42;82.50;98916.09;5025933;28;20048;-80
2023/09/29 04:29:30;;;;;;;8.50;6.05;;;;;;;16.41;82.89;98906.41;5047838;28;20021;-82
2023/09/29 04:31:55;;;;;;;6.65;6.00;;;;;;;16.48;82.81;98908.78;5045287;28;20709;-81
2023/09/29 04:34:23;;;;;;;9.95;6.43;;;;;;;16.62;82.53;98917.03;5030573;28;20862;-81
2023/09/29 04:36:48;;;;;;;8.35;6.15;;;;;;;16.59;83.32;98920.28;5046344;28;20029;-82
2023/09/29 04:39:15;;;;;;;11.10;7.53;;;;;;;16.49;83.18;98911.19;5045178;28;20036;-82
2023/09/29 04:41:40;;;;;;;10.13;6.43;;;;;;;16.54;83.19;98920.31;5043900;28;20024;-81
2023/09/29 04:44:06;;;;;;;7.55;6.15;;;;;;;16.42;83.17;98910.69;5048333;28;20456;-81
2023/09/29 04:46:33;;;;;;;7.32;6.35;;;;;;;16.48;83.40;98925.75;5039268;28;20021;-81
2023/09/29 04:49:00;;;;;;;12.13;7.18;;;;;;;16.44;84.08;98918.53;5039197;28;20033;-81
2023/09/29 04:51:25;;;;;;;9.60;7.18;;;;;;;16.42;83.93;98918.78;5028740;28;20147;-83
2023/09/29 04:53:50;;;;;;;8.98;6.93;;;;;;;16.39;84.29;98908.59;5045843;28;20507;-82
2023/09/29 04:56:16;;;;;;;9.82;6.60;;;;;;;16.48;84.13;98917.66;5014993;28;20453;-82
2023/09/29 04:58:41;;;;;;;8.70;6.80;;;;;;;16.41;84.21;98905.59;5035952;28;20052;-82
2023/09/29 05:01:06;;;;;;;7.80;6.97;;;;;;;16.42;84.02;98901.84;5044697;28;20032;-81
2023/09/29 05:03:32;;;;;;;8.43;6.97;;;;;;;16.44;84.41;98913.13;5046702;28;20527;-82
2023/09/29 05:05:57;;;;;;;9.32;7.68;;;;;;;16.34;84.24;98886.28;5032810;28;20040;-82
2023/09/29 05:08:22;;;;;;;11.45;7.05;;;;;;;16.41;84.42;98900.22;5047876;28;20619;-82
2023/09/29 05:10:48;;;;;;;10.23;6.78;;;;;;;16.49;84.03;98907.66;5024560;28;20044;-82
2023/09/29 05:13:14;;;;;;;8.55;6.90;;;;;;;16.37;84.44;98896.50;5031660;28;20043;-82
2023/09/29 05:15:40;;;;;;;8.65;7.15;;;;;;;16.40;83.91;98898.63;5045246;28;20068;-82
2023/09/29 05:18:06;;;;;;;8.52;7.03;;;;;;;16.47;84.11;98917.94;5046433;28;20056;-82
2023/09/29 05:20:31;;;;;;;11.23;7.60;;;;;;;16.38;84.21;98896.19;5046727;28;20037;-82
2023/09/29 05:22:56;;;;;;;7.43;6.72;;;;;;;16.38;83.85;98906.97;5048541;28;20374;-82
2023/09/29 05:25:23;;;;;;;10.00;7.32;;;;;;;16.47;84.38;98916.06;5032085;28;20044;-82
2023/09/29 05:27:48;;;;;;;8.77;7.32;;;;;;;16.40;84.27;98915.56;5046171;28;20029;-82
2023/09/29 05:30:16;;;;;;;11.65;6.55;;;;;;;16.37;84.35;98916.16;5044302;28;20033;-82
2023/09/29 05:32:41;;;;;;;10.07;6.88;;;;;;;16.35;84.25;98906.75;5042629;28;20031;-82
2023/09/29 05:35:07;;;;;;;8.30;6.53;;;;;;;16.31;84.91;98903.84;5039840;28;20040;-81
2023/09/29 05:37:33;;;;;;;7.88;6.60;;;;;;;16.32;84.56;98900.03;5025394;28;20037;-82
2023/09/29 05:40:03;;;;;;;7.82;6.78;;;;;;;16.31;84.14;98903.03;5013130;28;20033;-81
2023/09/29 05:42:31;;;;;;;11.45;7.10;;;;;;;16.29;84.61;98905.19;5047464;28;20044;-82
2023/09/29 05:44:57;;;;;;;9.75;7.35;;;;;;;16.34;85.09;98905.13;5013931;28;20033;-82
2023/09/29 05:47:22;;;;;;;8.40;7.28;;;;;;;16.31;84.82;98903.84;5031279;28;20029;-82
2023/09/29 05:49:47;;;;;;;10.95;7.47;;;;;;;16.30;84.46;98896.81;5030238;28;20025;-82
2023/09/29 05:52:13;;;;;;;9.35;6.63;;;;;;;16.41;84.60;98913.69;5029640;28;20037;-81
2023/09/29 05:54:38;;;;;;;9.00;6.47;;;;;;;16.45;84.87;98912.84;5043548;28;20033;-82
2023/09/29 05:57:03;;;;;;;7.78;6.97;;;;;;;16.42;84.98;98926.88;5050848;28;20028;-81
2023/09/29 05:59:29;;;;;;;8.32;6.80;;;;;;;16.43;85.28;98925.78;5029213;28;20489;-82
2023/09/29 06:01:55;;;;;;;8.40;6.60;;;;;;;16.31;84.98;98925.38;5028384;28;20033;-82
2023/09/29 06:04:20;;;;;;;8.05;7.20;;;;;;;16.44;84.65;98942.78;5052337;28;20428;-82
2023/09/29 06:06:46;;;;;;;10.55;7.22;;;;;;;16.37;84.40;98931.50;5051845;28;20037;-82
2023/09/29 06:09:11;;;;;;;8.60;7.22;;;;;;;16.38;83.93;98904.28;5032273;28;20123;-82
2023/09/29 06:11:37;;;;;;;10.93;6.72;;;;;;;16.56;84.12;98929.72;5052872;28;20028;-81
2023/09/29 06:14:02;;;;;;;8.38;6.18;;;;;;;16.42;84.12;98908.00;5049947;28;20484;-81
2023/09/29 06:16:27;;;;;;;11.30;7.78;;;;;;;16.53;84.21;98921.44;5050089;28;20388;-81
2023/09/29 06:18:53;;;;;;;7.82;6.70;;;;;;;16.59;83.60;98913.00;5050225;28;20033;-82
2023/09/29 06:21:18;;;;;;;10.05;6.72;;;;;;;16.55;83.50;98905.78;5050820;28;20072;-82
2023/09/29 06:23:43;;;;;;;7.43;6.10;;;;;;;16.69;83.42;98920.97;5018267;28;20029;-82
2023/09/29 06:26:09;;;;;;;9.93;6.93;;;;;;;16.62;83.16;98917.03;5044647;28;20032;-82
2023/09/29 06:28:34;;;;;;;9.70;6.85;;;;;;;16.67;83.64;98925.03;5010892;28;20059;-82
2023/09/29 06:31:00;;;;;;;7.57;6.57;;;;;;;16.41;83.92;98879.47;5048946;28;20028;-82
2023/09/29 06:33:25;;;;;;;8.55;6.75;;;;;;;16.65;83.64;98916.44;5049674;28;20520;-82
2023/09/29 06:35:52;;;;;;;7.38;6.63;;;;;;;16.66;83.56;98907.28;5026318;28;20132;-82
2023/09/29 06:38:17;;;;;;;7.38;6.55;;;;;;;16.63;83.52;98897.88;5049513;28;20066;-83
2023/09/29 06:40:45;;;;;;;7.65;6.30;;;;;;;16.68;83.33;98905.09;5033609;28;20032;-83
2023/09/29 06:43:10;;;;;;;7.57;6.65;;;;;;;16.74;82.96;98904.75;5051299;28;20089;-83
2023/09/29 06:45:36;;;;;;;11.57;7.43;;;;;;;16.75;83.49;98902.88;5043045;28;20168;-82
2023/09/29 06:48:02;;;;;;;7.75;6.95;;;;;;;16.70;82.80;98894.81;5047327;28;20029;-82
2023/09/29 06:50:27;;;;;;;7.00;6.30;;;;;;;16.75;83.09;98909.06;5019889;28;20136;-82
2023/09/29 06:52:52;;;;;;;11.63;7.53;;;;;;;16.72;82.71;98906.13;5049897;28;20032;-83
2023/09/29 06:55:18;;;;;;;8.63;7.30;;;;;;;16.68;82.95;98894.31;5012583;28;20029;-83
2023/09/29 06:57:43;;;;;;;8.52;7.28;;;;;;;16.76;82.88;98899.06;5011811;28;20417;-83
2023/09/29 07:00:09;;;;;;;10.07;8.43;;;;;;;16.55;84.13;98895.00;5038846;28;20029;-83
2023/09/29 07:02:35;;;;;;;8.73;7.32;;;;;;;16.49;84.27;98884.22;5045382;28;20062;-82
2023/09/29 07:05:01;;;;;;;9.40;7.40;;;;;;;16.60;83.51;98890.34;5050581;28;20145;-82
2023/09/29 07:07:36;;;;;;;7.38;6.63;;;;;;;16.58;83.75;98875.56;5025794;28;20559;-82
2023/09/29 07:10:01;;;;;;;8.15;6.30;;;;;;;16.76;82.88;98894.50;5041984;28;20116;-82
2023/09/29 07:12:27;;;;;;;10.38;8.00;;;;;;;16.63;84.44;98897.06;5039942;28;20116;-83
2023/09/29 07:14:53;;;;;;;9.45;7.88;;;;;;;16.64;83.91;98886.00;5014133;28;20048;-83
2023/09/29 07:17:18;;;;;;;14.52;9.32;;;;;;;16.62;85.46;98907.03;5047258;28;20651;-83
2023/09/29 07:19:45;;;;;;;11.70;9.05;;;;;;;16.72;84.00;98892.66;5013953;28;20025;-83
2023/09/29 07:22:11;;;;;;;8.15;7.28;;;;;;;16.60;83.58;98882.25;5031106;28;20032;-83
2023/09/29 07:24:38;;;;;;;9.48;6.82;;;;;;;16.63;83.70;98891.66;5042861;28;22274;-84
2023/09/29 07:27:04;;;;;;;11.10;6.88;;;;;;;16.85;83.20;98892.75;5045262;28;20021;-83
2023/09/29 07:29:29;;;;;;;10.05;7.30;;;;;;;16.91;83.27;98904.28;5015385;28;20052;-83
2023/09/29 07:31:54;;;;;;;8.30;6.88;;;;;;;16.92;83.21;98911.28;5046359;28;20392;-83
2023/09/29 07:34:20;;;;;;;10.27;7.85;;;;;;;16.91;83.35;98904.28;5044676;28;20036;-82
2023/09/29 07:36:46;;;;;;;7.53;6.68;;;;;;;17.03;83.01;98907.38;5052355;28;20021;-83
2023/09/29 07:39:13;;;;;;;6.93;6.13;;;;;;;17.19;82.44;98914.97;5029669;28;20044;-82
2023/09/29 07:41:39;;;;;;;7.28;6.57;;;;;;;17.14;83.22;98900.78;5055527;28;20388;-83
2023/09/29 07:44:05;;;;;;;7.65;6.60;;;;;;;17.28;83.64;98906.25;5045445;28;20104;-83
2023/09/29 07:46:30;;;;;;;12.00;7.97;;;;;;;17.34;83.31;98897.81;5047243;28;20377;-83
2023/09/29 07:48:55;;;;;;;8.23;7.43;;;;;;;17.39;82.59;98900.41;5026673;28;20112;-83
2023/09/29 07:51:24;;;;;;;7.70;6.78;;;;;;;17.46;83.87;98916.25;5042380;28;20084;-83
2023/09/29 07:53:50;;;;;;;7.18;6.43;;;;;;;17.41;83.11;98898.22;5043091;28;20108;-83
2023/09/29 07:56:15;;;;;;;8.10;6.75;;;;;;;17.53;83.37;98901.34;5043555;28;20124;-83
2023/09/29 07:58:40;;;;;;;7.60;6.40;;;;;;;17.62;83.09;98904.19;5009788;28;20040;-83
2023/09/29 08:01:06;;;;;;;7.82;6.55;;;;;;;17.52;83.10;98891.63;5047108;28;20033;-83
2023/09/29 08:03:32;;;;;;;7.55;6.50;;;;;;;17.63;83.28;98903.88;5032388;28;20029;-83
2023/09/29 08:05:58;;;;;;;7.53;6.75;;;;;;;17.57;84.00;98893.44;5031549;28;20028;-83
2023/09/29 08:08:24;;;;;;;8.52;5.97;;;;;;;17.56;83.03;98886.47;5018575;28;20488;-83
2023/09/29 08:10:50;;;;;;;7.00;5.95;;;;;;;17.63;83.70;98916.56;5046283;28;20030;-83
2023/09/29 08:13:16;;;;;;;10.95;6.60;;;;;;;17.65;82.39;98895.47;5030528;28;20036;-83
2023/09/29 08:15:42;;;;;;;7.43;6.70;;;;;;;17.73;82.85;98903.75;5031333;28;20067;-84
2023/09/29 08:18:08;;;;;;;7.70;6.15;;;;;;;17.73;82.55;98919.94;5048034;28;20049;-83
2023/09/29 08:20:35;;;;;;;12.55;6.40;;;;;;;17.77;82.04;98910.16;5047445;28;20515;-83
2023/09/29 08:23:00;;;;;;;8.75;6.20;;;;;;;17.77;82.30;98898.56;5031370;28;20025;-83
2023/09/29 08:25:26;;;;;;;7.07;5.70;;;;;;;17.75;82.53;98906.94;5024250;28;20055;-82
2023/09/29 08:27:51;;;;;;;8.93;6.68;;;;;;;17.86;84.77;98915.69;5029925;28;20029;-83
2023/09/29 08:30:17;;;;;;;7.63;6.72;;;;;;;18.01;82.41;98918.16;5047181;28;20040;-83
2023/09/29 08:32:43;;;;;;;10.13;6.75;;;;;;;17.94;82.10;98901.50;5047287;28;20028;-83
2023/09/29 08:35:13;;;;;;;6.90;6.20;;;;;;;17.94;81.52;98890.72;5047778;28;20476;-83
2023/09/29 08:37:40;;;;;;;8.48;6.30;;;;;;;18.14;81.36;98905.78;5048513;28;20428;-83
2023/09/29 08:40:09;;;;;;;6.43;5.70;;;;;;;18.18;82.73;98923.00;5030278;28;20056;-83
2023/09/29 08:42:36;;;;;;;9.13;6.40;;;;;;;18.17;83.03;98906.00;5049853;28;20036;-83
2023/09/29 08:45:08;;;;;;;7.40;5.97;;;;;;;18.43;80.97;98917.16;5048498;28;20036;-82
2023/09/29 08:47:36;;;;;;;6.63;5.68;;;;;;;18.43;80.89;98914.47;5046170;28;20549;-83
2023/09/29 08:50:06;;;;;;;7.72;5.82;;;;;;;18.52;80.85;98923.53;5030721;28;20115;-83
2023/09/29 08:52:32;;;;;;;7.22;5.60;;;;;;;18.65;80.52;98922.75;5041194;28;20047;-83
2023/09/29 08:54:59;;;;;;;10.25;6.55;;;;;;;18.56;81.68;98909.13;5043946;28;20024;-82
2023/09/29 08:57:25;;;;;;;6.32;5.70;;;;;;;18.61;80.06;98909.00;5026447;28;20025;-83
2023/09/29 08:59:54;;;;;;;7.10;6.40;;;;;;;18.68;80.52;98920.22;5038891;28;20092;-82
2023/09/29 09:02:20;;;;;;;7.32;6.63;;;;;;;18.91;80.13;98931.16;5029517;28;20033;-84
2023/09/29 09:04:47;;;;;;;8.68;6.63;;;;;;;18.78;80.02;98915.75;5038835;28;20032;-83
2023/09/29 09:07:14;;;;;;;9.15;6.00;;;;;;;18.83;82.83;98913.72;5040532;28;20080;-83
2023/09/29 09:09:46;;;;;;;6.90;6.28;;;;;;;18.84;82.87;98912.63;5041233;28;20032;-84
2023/09/29 09:12:12;;;;;;;8.43;6.22;;;;;;;18.71;82.70;98897.22;5046118;28;20036;-84
2023/09/29 09:14:41;;;;;;;10.32;6.72;;;;;;;18.70;83.26;98899.09;5024357;28;20033;-83
2023/09/29 09:17:10;;;;;;;7.63;6.03;;;;;;;18.78;83.38;98907.63;5048743;28;20460;-84
2023/09/29 09:19:50;;;;;;;7.82;6.15;;;;;;;18.79;83.39;98904.63;5040594;28;20457;-83
2023/09/29 09:22:16;;;;;;;7.55;6.75;;;;;;;18.68;83.42;98895.91;5047537;28;20577;-83
2023/09/29 09:24:42;;;;;;;7.75;6.00;;;;;;;18.79;82.72;98896.50;5031123;28;20087;-83
2023/09/29 09:27:08;;;;;;;11.35;7.22;;;;;;;18.85;82.67;98899.91;5047420;28;20495;-83
2023/09/29 09:29:43;;;;;;;34.13;8.30;;;;;;;18.96;82.53;98907.50;5030475;28;20052;-83
2023/09/29 09:32:10;;;;;;;15.43;7.55;;;;;;;18.88;82.08;98893.91;5040050;28;20381;-83
2023/09/29 09:34:37;;;;;;;22.17;7.75;;;;;;;18.91;82.31;98894.13;5042386;28;20052;-83
2023/09/29 09:37:03;;;;;;;23.05;8.10;;;;;;;18.88;81.93;98900.09;5025860;28;20040;-83
2023/09/29 09:39:29;;;;;;;17.00;7.45;;;;;;;18.82;82.14;98887.78;5036875;28;20389;-83
2023/09/29 09:41:59;;;;;;;10.27;6.55;;;;;;;18.96;81.79;98896.69;5043672;28;20029;-83
2023/09/29 09:44:28;;;;;;;13.13;6.82;;;;;;;18.96;82.24;98891.28;5047019;28;20029;-83
2023/09/29 09:47:00;;;;;;;17.70;7.50;;;;;;;18.99;81.58;98889.88;5045977;28;20059;-83
2023/09/29 09:49:43;;;;;;;9.43;6.38;;;;;;;18.87;80.89;98866.03;5028093;28;20025;-83
2023/09/29 09:52:14;;;;;;;7.78;6.20;;;;;;;18.98;81.02;98883.66;5040913;28;20120;-83
2023/09/29 09:54:48;;;;;;;12.38;6.43;;;;;;;18.94;80.90;98877.25;5045635;28;20041;-84
2023/09/29 09:57:20;;;;;;;7.82;5.95;;;;;;;19.04;80.55;98879.78;5009337;28;20144;-83
2023/09/29 09:59:47;;;;;;;7.45;5.95;;;;;;;18.93;80.71;98862.16;5045759;28;20057;-84
2023/09/29 10:02:13;;;;;;;6.75;5.78;;;;;;;18.92;79.90;98849.72;5040959;28;20029;-83
2023/09/29 10:04:43;;;;;;;8.82;6.47;;;;;;;19.09;80.28;98870.75;5047099;28;20029;-83
2023/09/29 10:07:08;;;;;;;13.45;6.72;;;;;;;19.23;79.81;98880.44;5051012;28;20051;-83
2023/09/29 10:09:45;;;;;;;6.15;5.45;;;;;;;19.27;80.90;98877.91;5052288;28;20065;-83
2023/09/29 10:12:24;;;;;;;8.95;5.75;;;;;;;19.31;80.28;98878.91;5044988;28;20025;-83
2023/09/29 10:14:49;;;;;;;7.80;5.90;;;;;;;19.28;79.61;98869.50;5044555;28;20072;-83
2023/09/29 10:17:15;;;;;;;22.33;12.93;;;;;;;19.32;80.16;98862.38;5046643;28;20104;-83
2023/09/29 10:19:40;;;;;;;8.93;8.05;;;;;;;19.53;79.27;98883.63;5049374;28;20037;-83
2023/09/29 10:22:07;;;;;;;6.63;5.90;;;;;;;19.44;79.18;98861.84;5046880;28;20116;-83
2023/09/29 10:24:33;;;;;;;7.85;6.53;;;;;;;19.69;79.77;98888.38;5047359;28;20095;-83
2023/09/29 10:26:59;;;;;;;7.05;6.35;;;;;;;19.70;79.39;98870.22;5044020;28;20132;-83
2023/09/29 10:29:37;;;;;;;6.63;5.40;;;;;;;19.90;78.49;98884.06;5048067;28;20883;-83
2023/09/29 10:32:13;;;;;;;6.15;5.55;;;;;;;19.96;78.21;98871.97;5045881;28;20037;-83
2023/09/29 10:34:39;;;;;;;;;;;;;;;20.09;77.62;98881.16;5048057;28;20112;-83
2023/09/29 10:37:04;;;;;;;6.87;5.17;;;;;;;20.06;77.94;98876.34;5045589;28;19964;-84
2023/09/29 10:39:30;;;;;;;7.03;5.80;;;;;;;20.11;77.69;98862.69;5028734;28;20120;-84
2023/09/29 10:42:12;;;;;;;15.48;13.93;;;;;;;20.28;77.98;98864.72;5049294;28;20500;-83
2023/09/29 10:44:52;;;;;;;12.60;8.90;;;;;;;20.23;77.20;98871.06;5050590;28;20039;-83
2023/09/29 10:47:17;;;;;;;8.60;7.43;;;;;;;20.22;77.27;98874.09;5050944;28;20037;-83
2023/09/29 10:49:46;;;;;;;7.90;5.75;;;;;;;20.35;77.32;98860.47;5038375;28;20039;-83
2023/09/29 10:52:24;;;;;;;10.00;6.82;;;;;;;20.53;77.23;98858.63;5049575;28;20029;-84
2023/09/29 10:54:56;;;;;;;11.20;5.43;;;;;;;20.63;77.86;98842.88;5044704;28;20101;-83
2023/09/29 10:57:22;;;;;;;6.80;6.13;;;;;;;20.72;76.76;98837.47;5043898;28;20037;-83
2023/09/29 10:59:48;;;;;;;7.78;6.43;;;;;;;20.91;75.73;98859.69;5041130;28;20041;-83
2023/09/29 11:02:15;;;;;;;10.00;6.43;;;;;;;20.95;75.79;98852.53;5041554;28;20035;-84
2023/09/29 11:04:40;;;;;;;7.53;5.47;;;;;;;21.12;75.55;98846.38;5033949;28;20029;-84
2023/09/29 11:07:05;;;;;;;12.52;7.70;;;;;;;21.13;75.02;98834.38;5030002;28;20033;-83
2023/09/29 11:09:32;;;;;;;5.93;5.22;;;;;;;21.26;74.83;98850.53;5025039;28;20037;-82
2023/09/29 11:12:00;;;;;;;7.93;6.47;;;;;;;21.29;74.51;98835.53;5022702;28;20055;-84
2023/09/29 11:14:38;;;;;;;9.73;6.50;;;;;;;21.43;74.45;98838.88;5042059;28;20103;-83
2023/09/29 11:17:04;;;;;;;7.78;5.45;;;;;;;21.35;74.23;98843.19;5048065;28;20033;-83
2023/09/29 11:19:30;;;;;;;9.13;5.93;;;;;;;21.25;73.22;98823.72;5045062;28;20029;-84
2023/09/29 11:21:59;;;;;;;10.77;6.05;;;;;;;21.51;73.76;98833.44;5046612;28;20032;-84
2023/09/29 11:24:24;;;;;;;9.05;6.00;;;;;;;21.52;73.73;98823.38;5051420;28;20163;-83
2023/09/29 11:26:55;;;;;;;9.90;5.13;;;;;;;21.55;73.43;98818.13;5045932;28;20955;-83
2023/09/29 11:29:27;;;;;;;8.40;5.38;;;;;;;21.70;73.22;98826.91;5045250;28;20040;-84